sensor_id;sensor_type;location;lat;lon;timestamp;pressure;altitude;pressure_sealevel;temperature;humidity
81177;BME280;70648;48.272;14.200;2023-06-14T00:00:28;97551.22;;;13.33;49.96
81177;BME280;70648;48.272;14.200;2023-06-14T00:03:13;97555.94;;;12.97;51.80
81177;BME280;70648;48.272;14.200;2023-06-14T00:06:02;97565.63;;;12.95;51.29
81177;BME280;70648;48.272;14.200;2023-06-14T00:08:47;97567.72;;;12.81;50.33
81177;BME280;70648;48.272;14.200;2023-06-14T00:11:32;97564.88;;;12.84;51.75
81177;BME280;70648;48.272;14.200;2023-06-14T00:14:18;97564.16;;;12.82;50.98
81177;BME280;70648;48.272;14.200;2023-06-14T00:17:03;97559.91;;;13.02;52.71
81177;BME280;70648;48.272;14.200;2023-06-14T00:19:49;97564.03;;;13.04;51.72
81177;BME280;70648;48.272;14.200;2023-06-14T00:22:34;97561.06;;;12.88;52.32
81177;BME280;70648;48.272;14.200;2023-06-14T00:25:22;97558.69;;;13.06;50.87
81177;BME280;70648;48.272;14.200;2023-06-14T00:28:08;97549.00;;;13.08;51.05
81177;BME280;70648;48.272;14.200;2023-06-14T00:30:54;97553.88;;;13.22;50.40
81177;BME280;70648;48.272;14.200;2023-06-14T00:33:39;97550.69;;;13.09;50.95
81177;BME280;70648;48.272;14.200;2023-06-14T00:36:25;97550.16;;;13.15;50.23
81177;BME280;70648;48.272;14.200;2023-06-14T00:39:10;97549.53;;;13.02;51.22
81177;BME280;70648;48.272;14.200;2023-06-14T00:41:55;97550.16;;;13.15;51.10
81177;BME280;70648;48.272;14.200;2023-06-14T00:44:40;97545.78;;;13.15;50.41
81177;BME280;70648;48.272;14.200;2023-06-14T00:47:26;97548.84;;;12.99;52.12
81177;BME280;70648;48.272;14.200;2023-06-14T00:50:12;97549.56;;;13.11;52.02
81177;BME280;70648;48.272;14.200;2023-06-14T00:52:58;97545.34;;;13.10;51.28
81177;BME280;70648;48.272;14.200;2023-06-14T00:55:44;97542.50;;;13.13;51.86
81177;BME280;70648;48.272;14.200;2023-06-14T00:58:30;97543.47;;;13.12;51.46
81177;BME280;70648;48.272;14.200;2023-06-14T01:01:16;97541.75;;;13.02;53.55
81177;BME280;70648;48.272;14.200;2023-06-14T01:04:01;97544.06;;;12.95;54.48
81177;BME280;70648;48.272;14.200;2023-06-14T01:10:25;97554.50;;;12.63;55.52
81177;BME280;70648;48.272;14.200;2023-06-14T01:16:16;97554.69;;;11.97;61.88
81177;BME280;70648;48.272;14.200;2023-06-14T01:19:03;97549.19;;;11.68;62.95
81177;BME280;70648;48.272;14.200;2023-06-14T01:21:50;97545.72;;;11.46;65.27
81177;BME280;70648;48.272;14.200;2023-06-14T01:24:35;97550.19;;;11.22;65.88
81177;BME280;70648;48.272;14.200;2023-06-14T01:27:25;97554.19;;;11.14;66.16
81177;BME280;70648;48.272;14.200;2023-06-14T01:30:14;97556.50;;;11.06;66.97
81177;BME280;70648;48.272;14.200;2023-06-14T01:32:59;97555.56;;;10.85;67.42
81177;BME280;70648;48.272;14.200;2023-06-14T01:35:48;97560.72;;;10.85;67.80
81177;BME280;70648;48.272;14.200;2023-06-14T01:38:33;97560.38;;;10.78;68.89
81177;BME280;70648;48.272;14.200;2023-06-14T01:41:19;97552.03;;;10.75;68.61
81177;BME280;70648;48.272;14.200;2023-06-14T01:44:06;97553.31;;;10.69;68.42
81177;BME280;70648;48.272;14.200;2023-06-14T01:46:51;97558.97;;;10.74;68.21
81177;BME280;70648;48.272;14.200;2023-06-14T01:49:38;97563.75;;;10.67;67.93
81177;BME280;70648;48.272;14.200;2023-06-14T01:52:23;97560.91;;;10.48;69.95
81177;BME280;70648;48.272;14.200;2023-06-14T01:55:09;97562.53;;;10.49;70.49
81177;BME280;70648;48.272;14.200;2023-06-14T01:57:54;97562.75;;;10.46;71.16
81177;BME280;70648;48.272;14.200;2023-06-14T02:00:39;97563.06;;;10.30;71.24
81177;BME280;70648;48.272;14.200;2023-06-14T02:03:25;97564.19;;;10.26;71.55
81177;BME280;70648;48.272;14.200;2023-06-14T02:06:17;97560.31;;;10.20;72.57
81177;BME280;70648;48.272;14.200;2023-06-14T02:09:05;97570.00;;;10.17;71.72
81177;BME280;70648;48.272;14.200;2023-06-14T02:11:53;97567.56;;;10.15;72.81
81177;BME280;70648;48.272;14.200;2023-06-14T02:14:38;97563.72;;;10.21;72.27
81177;BME280;70648;48.272;14.200;2023-06-14T02:17:30;97559.81;;;10.15;72.53
81177;BME280;70648;48.272;14.200;2023-06-14T02:20:23;97571.63;;;10.07;72.97
81177;BME280;70648;48.272;14.200;2023-06-14T02:26:15;97568.25;;;9.93;73.74
81177;BME280;70648;48.272;14.200;2023-06-14T02:29:04;97567.94;;;9.74;75.38
81177;BME280;70648;48.272;14.200;2023-06-14T02:31:57;97564.97;;;9.67;74.87
81177;BME280;70648;48.272;14.200;2023-06-14T02:34:43;97570.22;;;9.66;75.17
81177;BME280;70648;48.272;14.200;2023-06-14T02:37:29;97566.31;;;9.60;76.14
81177;BME280;70648;48.272;14.200;2023-06-14T02:40:17;97563.41;;;9.65;75.95
81177;BME280;70648;48.272;14.200;2023-06-14T02:43:02;97574.97;;;9.59;76.26
81177;BME280;70648;48.272;14.200;2023-06-14T02:45:48;97575.84;;;9.47;76.17
81177;BME280;70648;48.272;14.200;2023-06-14T02:48:35;97567.19;;;9.35;77.49
81177;BME280;70648;48.272;14.200;2023-06-14T02:51:20;97579.28;;;9.34;77.20
81177;BME280;70648;48.272;14.200;2023-06-14T02:54:06;97579.16;;;9.36;77.19
81177;BME280;70648;48.272;14.200;2023-06-14T02:56:52;97581.03;;;9.34;77.70
81177;BME280;70648;48.272;14.200;2023-06-14T02:59:38;97581.44;;;9.41;76.78
81177;BME280;70648;48.272;14.200;2023-06-14T03:02:26;97568.72;;;9.50;76.37
81177;BME280;70648;48.272;14.200;2023-06-14T03:05:15;97578.50;;;9.58;75.68
81177;BME280;70648;48.272;14.200;2023-06-14T03:08:01;97566.91;;;9.64;75.12
81177;BME280;70648;48.272;14.200;2023-06-14T03:10:48;97572.47;;;9.70;74.58
81177;BME280;70648;48.272;14.200;2023-06-14T03:13:35;97574.63;;;9.76;74.04
81177;BME280;70648;48.272;14.200;2023-06-14T03:16:20;97569.91;;;9.70;75.45
81177;BME280;70648;48.272;14.200;2023-06-14T03:19:07;97569.34;;;9.78;74.16
81177;BME280;70648;48.272;14.200;2023-06-14T03:21:53;97572.13;;;9.88;71.49
81177;BME280;70648;48.272;14.200;2023-06-14T03:24:42;97573.41;;;9.93;74.37
81177;BME280;70648;48.272;14.200;2023-06-14T03:27:29;97580.63;;;10.01;72.87
81177;BME280;70648;48.272;14.200;2023-06-14T03:30:15;97572.94;;;10.12;72.26
81177;BME280;70648;48.272;14.200;2023-06-14T03:33:01;97574.31;;;10.29;73.13
81177;BME280;70648;48.272;14.200;2023-06-14T03:35:47;97578.94;;;10.37;71.34
81177;BME280;70648;48.272;14.200;2023-06-14T03:38:33;97576.06;;;10.64;70.59
81177;BME280;70648;48.272;14.200;2023-06-14T03:41:22;97582.72;;;10.90;69.30
81177;BME280;70648;48.272;14.200;2023-06-14T03:44:10;97588.72;;;11.13;68.85
81177;BME280;70648;48.272;14.200;2023-06-14T03:46:59;97598.47;;;11.32;68.49
81177;BME280;70648;48.272;14.200;2023-06-14T03:49:45;97597.53;;;11.00;71.70
81177;BME280;70648;48.272;14.200;2023-06-14T03:52:39;97601.06;;;11.21;70.47
81177;BME280;70648;48.272;14.200;2023-06-14T03:55:29;97615.06;;;11.18;69.92
81177;BME280;70648;48.272;14.200;2023-06-14T03:58:19;97602.72;;;11.45;69.34
81177;BME280;70648;48.272;14.200;2023-06-14T04:01:05;97611.88;;;11.71;68.43
81177;BME280;70648;48.272;14.200;2023-06-14T04:03:52;97608.09;;;11.98;67.38
81177;BME280;70648;48.272;14.200;2023-06-14T04:06:38;97614.34;;;12.27;65.86
81177;BME280;70648;48.272;14.200;2023-06-14T04:09:26;97625.09;;;12.23;65.87
81177;BME280;70648;48.272;14.200;2023-06-14T04:12:12;97625.94;;;12.56;65.93
81177;BME280;70648;48.272;14.200;2023-06-14T04:14:57;97633.31;;;13.02;63.16
81177;BME280;70648;48.272;14.200;2023-06-14T04:17:44;97629.56;;;12.85;63.70
81177;BME280;70648;48.272;14.200;2023-06-14T04:20:32;97629.59;;;13.16;64.68
81177;BME280;70648;48.272;14.200;2023-06-14T04:23:19;97625.59;;;13.54;62.14
81177;BME280;70648;48.272;14.200;2023-06-14T04:26:06;97630.75;;;14.04;60.37
81177;BME280;70648;48.272;14.200;2023-06-14T04:28:52;97633.13;;;14.07;61.05
81177;BME280;70648;48.272;14.200;2023-06-14T04:31:38;97628.75;;;14.27;58.89
81177;BME280;70648;48.272;14.200;2023-06-14T04:34:27;97633.19;;;14.85;58.37
81177;BME280;70648;48.272;14.200;2023-06-14T04:37:19;97630.53;;;15.51;54.27
81177;BME280;70648;48.272;14.200;2023-06-14T04:40:08;97635.50;;;15.82;53.89
81177;BME280;70648;48.272;14.200;2023-06-14T04:42:55;97647.44;;;15.37;54.05
81177;BME280;70648;48.272;14.200;2023-06-14T04:45:43;97637.06;;;15.75;54.00
81177;BME280;70648;48.272;14.200;2023-06-14T04:48:31;97645.97;;;15.72;52.85
81177;BME280;70648;48.272;14.200;2023-06-14T04:51:17;97643.91;;;15.76;52.31
81177;BME280;70648;48.272;14.200;2023-06-14T04:54:06;97654.19;;;15.30;55.18
81177;BME280;70648;48.272;14.200;2023-06-14T04:56:55;97649.13;;;15.19;56.58
81177;BME280;70648;48.272;14.200;2023-06-14T04:59:41;97651.81;;;15.37;55.77
81177;BME280;70648;48.272;14.200;2023-06-14T05:02:31;97653.84;;;14.86;55.84
81177;BME280;70648;48.272;14.200;2023-06-14T05:05:20;97651.06;;;15.74;54.18
81177;BME280;70648;48.272;14.200;2023-06-14T05:08:07;97657.09;;;15.17;55.31
81177;BME280;70648;48.272;14.200;2023-06-14T05:10:55;97653.44;;;14.62;55.64
81177;BME280;70648;48.272;14.200;2023-06-14T05:13:41;97654.34;;;15.19;56.71
81177;BME280;70648;48.272;14.200;2023-06-14T05:16:27;97659.66;;;15.64;54.39
81177;BME280;70648;48.272;14.200;2023-06-14T05:19:17;97666.56;;;15.09;56.15
81177;BME280;70648;48.272;14.200;2023-06-14T05:22:06;97661.06;;;14.92;54.96
81177;BME280;70648;48.272;14.200;2023-06-14T05:24:58;97672.06;;;15.43;54.97
81177;BME280;70648;48.272;14.200;2023-06-14T05:27:44;97682.41;;;15.15;55.22
81177;BME280;70648;48.272;14.200;2023-06-14T05:30:32;97676.13;;;15.75;53.97
81177;BME280;70648;48.272;14.200;2023-06-14T05:33:18;97680.47;;;16.11;53.02
81177;BME280;70648;48.272;14.200;2023-06-14T05:36:07;97681.66;;;16.17;52.20
81177;BME280;70648;48.272;14.200;2023-06-14T05:38:58;97683.06;;;16.57;52.84
81177;BME280;70648;48.272;14.200;2023-06-14T05:41:51;97687.81;;;17.93;48.97
81177;BME280;70648;48.272;14.200;2023-06-14T05:44:39;97688.53;;;16.99;51.07
81177;BME280;70648;48.272;14.200;2023-06-14T05:47:26;97684.22;;;16.90;52.10
81177;BME280;70648;48.272;14.200;2023-06-14T05:50:12;97689.25;;;16.74;52.22
81177;BME280;70648;48.272;14.200;2023-06-14T05:53:01;97690.00;;;17.02;50.69
81177;BME280;70648;48.272;14.200;2023-06-14T05:55:47;97694.09;;;17.22;52.83
81177;BME280;70648;48.272;14.200;2023-06-14T05:58:33;97698.44;;;17.92;47.93
81177;BME280;70648;48.272;14.200;2023-06-14T06:01:24;97698.59;;;16.76;50.26
81177;BME280;70648;48.272;14.200;2023-06-14T06:04:12;97691.56;;;17.39;50.32
81177;BME280;70648;48.272;14.200;2023-06-14T06:07:12;97691.94;;;17.00;52.24
81177;BME280;70648;48.272;14.200;2023-06-14T06:10:04;97692.63;;;16.84;50.80
81177;BME280;70648;48.272;14.200;2023-06-14T06:12:50;97694.13;;;17.30;51.44
81177;BME280;70648;48.272;14.200;2023-06-14T06:15:37;97702.38;;;16.64;52.79
81177;BME280;70648;48.272;14.200;2023-06-14T06:18:23;97703.72;;;17.04;50.83
81177;BME280;70648;48.272;14.200;2023-06-14T06:21:08;97707.94;;;17.75;49.13
81177;BME280;70648;48.272;14.200;2023-06-14T06:23:54;97709.88;;;17.91;50.01
81177;BME280;70648;48.272;14.200;2023-06-14T06:26:43;97710.91;;;18.06;48.50
81177;BME280;70648;48.272;14.200;2023-06-14T06:29:29;97712.41;;;16.87;51.80
81177;BME280;70648;48.272;14.200;2023-06-14T06:32:15;97708.13;;;17.47;48.98
81177;BME280;70648;48.272;14.200;2023-06-14T06:35:00;97711.50;;;17.92;49.12
81177;BME280;70648;48.272;14.200;2023-06-14T06:37:46;97720.50;;;17.19;49.88
81177;BME280;70648;48.272;14.200;2023-06-14T06:40:31;97709.81;;;18.25;48.54
81177;BME280;70648;48.272;14.200;2023-06-14T06:43:16;97717.22;;;18.38;48.86
81177;BME280;70648;48.272;14.200;2023-06-14T06:46:02;97714.81;;;18.44;49.77
81177;BME280;70648;48.272;14.200;2023-06-14T06:48:47;97710.06;;;18.48;49.04
81177;BME280;70648;48.272;14.200;2023-06-14T06:51:32;97713.09;;;18.94;47.16
81177;BME280;70648;48.272;14.200;2023-06-14T06:54:18;97716.25;;;18.39;49.51
81177;BME280;70648;48.272;14.200;2023-06-14T06:57:03;97712.91;;;18.79;47.04
81177;BME280;70648;48.272;14.200;2023-06-14T06:59:49;97717.53;;;18.27;46.96
81177;BME280;70648;48.272;14.200;2023-06-14T07:02:35;97714.44;;;18.98;46.52
81177;BME280;70648;48.272;14.200;2023-06-14T07:05:20;97716.38;;;18.88;47.19
81177;BME280;70648;48.272;14.200;2023-06-14T07:08:05;97728.00;;;17.92;47.47
81177;BME280;70648;48.272;14.200;2023-06-14T07:10:51;97735.53;;;17.95;47.52
81177;BME280;70648;48.272;14.200;2023-06-14T07:13:36;97723.78;;;17.47;48.97
81177;BME280;70648;48.272;14.200;2023-06-14T07:16:21;97736.16;;;17.89;47.73
81177;BME280;70648;48.272;14.200;2023-06-14T07:19:07;97725.78;;;18.64;44.59
81177;BME280;70648;48.272;14.200;2023-06-14T07:21:52;97735.38;;;19.31;43.99
81177;BME280;70648;48.272;14.200;2023-06-14T07:24:38;97732.94;;;18.46;45.06
81177;BME280;70648;48.272;14.200;2023-06-14T07:27:25;97720.56;;;18.73;46.34
81177;BME280;70648;48.272;14.200;2023-06-14T07:30:11;97723.91;;;19.07;44.70
81177;BME280;70648;48.272;14.200;2023-06-14T07:32:56;97726.66;;;18.81;46.52
81177;BME280;70648;48.272;14.200;2023-06-14T07:35:41;97722.31;;;18.56;47.35
81177;BME280;70648;48.272;14.200;2023-06-14T07:38:27;97730.22;;;19.87;45.89
81177;BME280;70648;48.272;14.200;2023-06-14T07:41:11;97732.41;;;19.09;45.98
81177;BME280;70648;48.272;14.200;2023-06-14T07:43:57;97734.00;;;19.84;43.84
81177;BME280;70648;48.272;14.200;2023-06-14T07:46:42;97729.97;;;20.13;44.32
81177;BME280;70648;48.272;14.200;2023-06-14T07:49:28;97731.44;;;19.51;46.80
81177;BME280;70648;48.272;14.200;2023-06-14T07:52:13;97734.22;;;19.25;43.93
81177;BME280;70648;48.272;14.200;2023-06-14T07:54:59;97732.75;;;20.82;42.83
81177;BME280;70648;48.272;14.200;2023-06-14T07:57:45;97728.03;;;21.76;41.67
81177;BME280;70648;48.272;14.200;2023-06-14T08:00:31;97733.38;;;21.30;39.90
81177;BME280;70648;48.272;14.200;2023-06-14T08:03:16;97724.75;;;21.59;41.56
81177;BME280;70648;48.272;14.200;2023-06-14T08:06:02;97721.28;;;21.44;44.27
81177;BME280;70648;48.272;14.200;2023-06-14T08:08:47;97740.63;;;19.31;44.86
81177;BME280;70648;48.272;14.200;2023-06-14T08:11:32;97732.91;;;18.97;45.67
81177;BME280;70648;48.272;14.200;2023-06-14T08:14:18;97732.88;;;19.62;45.46
81177;BME280;70648;48.272;14.200;2023-06-14T08:17:03;97727.34;;;20.52;44.06
81177;BME280;70648;48.272;14.200;2023-06-14T08:19:48;97731.28;;;21.02;41.56
81177;BME280;70648;48.272;14.200;2023-06-14T08:22:34;97735.16;;;19.57;44.80
81177;BME280;70648;48.272;14.200;2023-06-14T08:25:20;97739.88;;;19.94;43.12
81177;BME280;70648;48.272;14.200;2023-06-14T08:28:06;97727.44;;;20.27;45.17
81177;BME280;70648;48.272;14.200;2023-06-14T08:30:51;97732.00;;;21.42;40.17
81177;BME280;70648;48.272;14.200;2023-06-14T08:33:36;97727.59;;;21.34;42.52
81177;BME280;70648;48.272;14.200;2023-06-14T08:36:21;97730.69;;;21.91;40.70
81177;BME280;70648;48.272;14.200;2023-06-14T08:39:07;97734.06;;;19.43;45.88
81177;BME280;70648;48.272;14.200;2023-06-14T08:41:54;97737.31;;;21.11;44.26
81177;BME280;70648;48.272;14.200;2023-06-14T08:44:41;97731.72;;;20.68;42.45
81177;BME280;70648;48.272;14.200;2023-06-14T08:47:27;97738.25;;;19.93;44.69
81177;BME280;70648;48.272;14.200;2023-06-14T08:50:14;97746.56;;;20.76;43.13
81177;BME280;70648;48.272;14.200;2023-06-14T08:53:01;97737.81;;;20.60;41.00
81177;BME280;70648;48.272;14.200;2023-06-14T08:55:47;97740.28;;;20.62;43.37
81177;BME280;70648;48.272;14.200;2023-06-14T08:58:33;97739.22;;;21.78;41.21
81177;BME280;70648;48.272;14.200;2023-06-14T09:01:19;97744.41;;;20.56;43.15
81177;BME280;70648;48.272;14.200;2023-06-14T09:04:06;97745.75;;;21.44;41.58
81177;BME280;70648;48.272;14.200;2023-06-14T09:06:51;97742.38;;;21.88;38.48
81177;BME280;70648;48.272;14.200;2023-06-14T09:09:39;97741.84;;;21.17;42.24
81177;BME280;70648;48.272;14.200;2023-06-14T09:12:25;97742.31;;;22.26;41.16
81177;BME280;70648;48.272;14.200;2023-06-14T09:15:10;97741.31;;;20.76;42.77
81177;BME280;70648;48.272;14.200;2023-06-14T09:17:55;97741.56;;;22.02;41.42
81177;BME280;70648;48.272;14.200;2023-06-14T09:20:41;97733.78;;;20.73;42.91
81177;BME280;70648;48.272;14.200;2023-06-14T09:23:26;97744.72;;;21.98;39.61
81177;BME280;70648;48.272;14.200;2023-06-14T09:26:16;97746.06;;;20.80;41.79
81177;BME280;70648;48.272;14.200;2023-06-14T09:29:05;97741.31;;;20.53;42.10
81177;BME280;70648;48.272;14.200;2023-06-14T09:31:50;97743.44;;;21.64;40.03
81177;BME280;70648;48.272;14.200;2023-06-14T09:34:35;97741.34;;;20.99;39.46
81177;BME280;70648;48.272;14.200;2023-06-14T09:37:31;97746.09;;;22.38;37.44
81177;BME280;70648;48.272;14.200;2023-06-14T09:40:20;97743.91;;;21.97;39.68
81177;BME280;70648;48.272;14.200;2023-06-14T09:43:07;97744.16;;;21.58;39.98
81177;BME280;70648;48.272;14.200;2023-06-14T09:45:54;97739.06;;;21.56;39.43
81177;BME280;70648;48.272;14.200;2023-06-14T09:48:40;97735.63;;;22.45;36.53
81177;BME280;70648;48.272;14.200;2023-06-14T09:51:28;97741.47;;;21.66;40.62
81177;BME280;70648;48.272;14.200;2023-06-14T09:54:16;97737.47;;;21.70;38.61
81177;BME280;70648;48.272;14.200;2023-06-14T09:57:07;97742.94;;;21.83;37.14
81177;BME280;70648;48.272;14.200;2023-06-14T09:59:57;97732.94;;;20.80;39.40
81177;BME280;70648;48.272;14.200;2023-06-14T10:02:50;97728.38;;;21.43;39.19
81177;BME280;70648;48.272;14.200;2023-06-14T10:05:45;97729.31;;;21.27;39.90
81177;BME280;70648;48.272;14.200;2023-06-14T10:08:31;97739.81;;;21.80;39.09
81177;BME280;70648;48.272;14.200;2023-06-14T10:11:19;97729.63;;;21.47;39.48
81177;BME280;70648;48.272;14.200;2023-06-14T10:14:05;97719.69;;;21.34;38.94
81177;BME280;70648;48.272;14.200;2023-06-14T10:17:06;97735.75;;;21.77;38.79
81177;BME280;70648;48.272;14.200;2023-06-14T10:22:56;97724.50;;;22.43;38.34
81177;BME280;70648;48.272;14.200;2023-06-14T10:25:43;97724.88;;;21.95;38.48
81177;BME280;70648;48.272;14.200;2023-06-14T10:28:28;97717.75;;;21.36;39.71
81177;BME280;70648;48.272;14.200;2023-06-14T10:31:15;97721.59;;;21.03;39.58
81177;BME280;70648;48.272;14.200;2023-06-14T10:34:01;97731.63;;;21.45;39.15
81177;BME280;70648;48.272;14.200;2023-06-14T10:37:12;97725.50;;;22.12;39.52
81177;BME280;70648;48.272;14.200;2023-06-14T10:39:58;97724.06;;;22.24;37.97
81177;BME280;70648;48.272;14.200;2023-06-14T10:42:51;97721.53;;;22.89;37.51
81177;BME280;70648;48.272;14.200;2023-06-14T10:45:36;97727.22;;;22.71;38.25
81177;BME280;70648;48.272;14.200;2023-06-14T10:48:29;97713.63;;;22.67;39.58
81177;BME280;70648;48.272;14.200;2023-06-14T10:51:21;97718.66;;;22.47;37.63
81177;BME280;70648;48.272;14.200;2023-06-14T10:54:11;97719.06;;;22.00;37.38
81177;BME280;70648;48.272;14.200;2023-06-14T10:56:58;97714.78;;;21.16;38.63
81177;BME280;70648;48.272;14.200;2023-06-14T10:59:45;97711.63;;;22.91;35.86
81177;BME280;70648;48.272;14.200;2023-06-14T11:05:28;97724.69;;;21.82;38.29
81177;BME280;70648;48.272;14.200;2023-06-14T11:11:22;97705.09;;;22.29;39.82
81177;BME280;70648;48.272;14.200;2023-06-14T11:14:08;97708.53;;;21.85;37.05
81177;BME280;70648;48.272;14.200;2023-06-14T11:16:53;97703.25;;;21.17;38.18
81177;BME280;70648;48.272;14.200;2023-06-14T11:19:38;97704.28;;;21.84;37.25
81177;BME280;70648;48.272;14.200;2023-06-14T11:22:24;97704.41;;;21.00;39.46
81177;BME280;70648;48.272;14.200;2023-06-14T11:25:09;97691.75;;;20.81;41.30
81177;BME280;70648;48.272;14.200;2023-06-14T11:27:56;97706.91;;;20.93;39.64
81177;BME280;70648;48.272;14.200;2023-06-14T11:30:41;97701.47;;;21.18;39.59
81177;BME280;70648;48.272;14.200;2023-06-14T11:33:26;97697.75;;;20.89;39.19
81177;BME280;70648;48.272;14.200;2023-06-14T11:36:12;97704.63;;;21.51;39.43
81177;BME280;70648;48.272;14.200;2023-06-14T11:39:01;97711.16;;;22.15;38.94
81177;BME280;70648;48.272;14.200;2023-06-14T11:41:48;97701.59;;;21.77;40.50
81177;BME280;70648;48.272;14.200;2023-06-14T11:44:33;97699.56;;;21.50;40.47
81177;BME280;70648;48.272;14.200;2023-06-14T11:47:18;97707.34;;;21.43;41.68
81177;BME280;70648;48.272;14.200;2023-06-14T11:50:06;97708.00;;;21.22;43.65
81177;BME280;70648;48.272;14.200;2023-06-14T11:55:40;97704.94;;;20.41;50.52
81177;BME280;70648;48.272;14.200;2023-06-14T11:58:26;97710.81;;;20.04;50.25
81177;BME280;70648;48.272;14.200;2023-06-14T12:01:18;97718.66;;;19.24;56.51
81177;BME280;70648;48.272;14.200;2023-06-14T12:04:04;97721.91;;;18.77;57.84
81177;BME280;70648;48.272;14.200;2023-06-14T12:06:50;97731.09;;;18.97;51.86
81177;BME280;70648;48.272;14.200;2023-06-14T12:09:38;97739.28;;;18.86;56.50
81177;BME280;70648;48.272;14.200;2023-06-14T12:12:25;97737.63;;;17.92;52.22
81177;BME280;70648;48.272;14.200;2023-06-14T12:15:10;97733.22;;;18.27;57.09
81177;BME280;70648;48.272;14.200;2023-06-14T12:17:58;97745.38;;;17.58;61.94
81177;BME280;70648;48.272;14.200;2023-06-14T12:20:48;97746.78;;;17.44;64.02
81177;BME280;70648;48.272;14.200;2023-06-14T12:23:48;97745.00;;;17.26;68.33
81177;BME280;70648;48.272;14.200;2023-06-14T12:26:37;97740.84;;;17.60;60.53
81177;BME280;70648;48.272;14.200;2023-06-14T12:29:23;97733.13;;;17.76;69.95
81177;BME280;70648;48.272;14.200;2023-06-14T12:32:08;97737.31;;;17.95;63.09
81177;BME280;70648;48.272;14.200;2023-06-14T12:34:54;97729.16;;;17.98;59.84
81177;BME280;70648;48.272;14.200;2023-06-14T12:37:39;97725.84;;;18.22;50.69
81177;BME280;70648;48.272;14.200;2023-06-14T12:40:25;97723.47;;;18.03;62.36
81177;BME280;70648;48.272;14.200;2023-06-14T12:43:11;97726.75;;;18.05;59.03
81177;BME280;70648;48.272;14.200;2023-06-14T12:45:56;97723.72;;;18.26;56.30
81177;BME280;70648;48.272;14.200;2023-06-14T12:48:41;97716.38;;;18.29;51.27
81177;BME280;70648;48.272;14.200;2023-06-14T12:51:27;97722.50;;;18.54;53.14
81177;BME280;70648;48.272;14.200;2023-06-14T12:54:12;97740.22;;;18.18;55.53
81177;BME280;70648;48.272;14.200;2023-06-14T12:56:59;97723.25;;;18.30;50.51
81177;BME280;70648;48.272;14.200;2023-06-14T12:59:44;97718.88;;;18.47;53.99
81177;BME280;70648;48.272;14.200;2023-06-14T13:02:30;97717.19;;;18.80;50.35
81177;BME280;70648;48.272;14.200;2023-06-14T13:05:16;97720.63;;;18.81;48.66
81177;BME280;70648;48.272;14.200;2023-06-14T13:08:01;97718.16;;;18.87;46.13
81177;BME280;70648;48.272;14.200;2023-06-14T13:10:47;97719.16;;;19.27;50.36
81177;BME280;70648;48.272;14.200;2023-06-14T13:13:32;97709.31;;;20.18;47.94
81177;BME280;70648;48.272;14.200;2023-06-14T13:16:17;97714.72;;;20.56;46.31
81177;BME280;70648;48.272;14.200;2023-06-14T13:19:02;97708.50;;;20.40;40.57
81177;BME280;70648;48.272;14.200;2023-06-14T13:21:48;97709.94;;;20.51;40.52
81177;BME280;70648;48.272;14.200;2023-06-14T13:24:33;97708.97;;;20.21;39.71
81177;BME280;70648;48.272;14.200;2023-06-14T13:27:18;97707.09;;;20.92;39.82
81177;BME280;70648;48.272;14.200;2023-06-14T13:30:04;97706.13;;;21.08;38.51
81177;BME280;70648;48.272;14.200;2023-06-14T13:32:51;97697.66;;;21.58;39.25
81177;BME280;70648;48.272;14.200;2023-06-14T13:35:36;97698.09;;;21.47;39.55
81177;BME280;70648;48.272;14.200;2023-06-14T13:38:21;97697.28;;;21.24;38.78
81177;BME280;70648;48.272;14.200;2023-06-14T13:41:07;97698.47;;;21.59;37.50
81177;BME280;70648;48.272;14.200;2023-06-14T13:43:52;97699.47;;;21.58;35.66
81177;BME280;70648;48.272;14.200;2023-06-14T13:46:37;97697.03;;;21.71;38.89
81177;BME280;70648;48.272;14.200;2023-06-14T13:49:22;97695.84;;;22.03;40.72
81177;BME280;70648;48.272;14.200;2023-06-14T13:52:07;97693.47;;;21.11;40.25
81177;BME280;70648;48.272;14.200;2023-06-14T13:54:53;97690.31;;;22.13;40.09
81177;BME280;70648;48.272;14.200;2023-06-14T13:57:38;97690.88;;;21.79;40.74
81177;BME280;70648;48.272;14.200;2023-06-14T14:00:23;97691.41;;;21.74;38.88
81177;BME280;70648;48.272;14.200;2023-06-14T14:03:09;97693.44;;;21.34;39.28
81177;BME280;70648;48.272;14.200;2023-06-14T14:05:54;97689.47;;;21.38;38.88
81177;BME280;70648;48.272;14.200;2023-06-14T14:08:39;97688.13;;;22.02;38.82
81177;BME280;70648;48.272;14.200;2023-06-14T14:11:25;97688.38;;;21.33;38.18
81177;BME280;70648;48.272;14.200;2023-06-14T14:14:10;97688.97;;;21.88;36.85
81177;BME280;70648;48.272;14.200;2023-06-14T14:16:55;97687.97;;;21.89;41.91
81177;BME280;70648;48.272;14.200;2023-06-14T14:19:40;97680.78;;;21.38;37.46
81177;BME280;70648;48.272;14.200;2023-06-14T14:22:25;97688.44;;;21.63;35.83
81177;BME280;70648;48.272;14.200;2023-06-14T14:25:11;97688.16;;;21.57;38.04
81177;BME280;70648;48.272;14.200;2023-06-14T14:27:56;97678.53;;;21.50;37.04
81177;BME280;70648;48.272;14.200;2023-06-14T14:30:42;97691.00;;;21.33;37.86
81177;BME280;70648;48.272;14.200;2023-06-14T14:33:27;97686.97;;;21.45;36.14
81177;BME280;70648;48.272;14.200;2023-06-14T14:36:12;97687.53;;;21.32;33.81
81177;BME280;70648;48.272;14.200;2023-06-14T14:38:58;97679.44;;;21.57;37.15
81177;BME280;70648;48.272;14.200;2023-06-14T14:41:43;97683.88;;;21.71;37.38
81177;BME280;70648;48.272;14.200;2023-06-14T14:44:28;97694.22;;;21.88;36.29
81177;BME280;70648;48.272;14.200;2023-06-14T14:47:14;97688.16;;;21.72;33.23
81177;BME280;70648;48.272;14.200;2023-06-14T14:49:59;97690.13;;;21.70;34.89
81177;BME280;70648;48.272;14.200;2023-06-14T14:52:44;97687.50;;;21.70;34.66